Route Details

Aircraft Information
Group: European Fleet
Types: A30F, A31F, B738
Route Data
Distance: 1035nm
Duration: 2h 45m
Origin METAR: LXGB 072320Z AUTO 05013KT 9999 FEW018/// 12/08 Q1018
Dest. METAR: EDDK 072320Z AUTO VRB01KT CAVOK M03/M06 Q1039 NOSIG
Freight Data
(for Feb 8, 2023)
Load Factor:
46%
Manifested Cargo: 37,933lbs
Financial History
Total Freight: 69,123lbs
Average Load: 0lbs/flt
Fuel Used: 28,959lbs
Avg. Fuel Used: 0lbs/flt
Fuel Expense: $13,684
Avg. Fuel Expense: $0
Avg. Fuel Cost: $0/lbs
Total Gross Income: $158,983
Pilot Pay: $538
Total Expenses: $35,911
Total Revenue: $107,220
Average Revenue: $0

Capitol Logistics 561




LXGB
Gibraltar Airport
Gibraltar, GI
EDDK
Cologne Bonn Airport
Cologne, DE